Time,TemperatureF,DewpointF,PressureIn,WindDirection,WindDirectionDegrees,WindSpeedMPH,WindSpeedGustMPH,Humidity,HourlyPrecipIn,Conditions,Clouds,dailyrainin,SoftwareType,DateUTC
2015-01-31 00:04:00,23.3,14.3,30.46,NW,306,0.0,12.0,68,0.00,,,0.00,Wunderground v.1.13,2015-01-31 05:04:00,
2015-01-31 00:14:00,23.0,14.3,30.46,NW,308,0.0,12.0,69,0.00,,,0.00,Wunderground v.1.13,2015-01-31 05:14:00,
2015-01-31 00:24:00,23.0,14.3,30.46,NW,308,0.0,12.0,69,0.00,,,0.00,Wunderground v.1.13,2015-01-31 05:24:00,
2015-01-31 00:34:00,22.9,14.2,30.46,NW,308,0.0,12.0,69,0.00,,,0.00,Wunderground v.1.13,2015-01-31 05:34:00,
2015-01-31 00:44:00,22.9,14.2,30.46,NW,308,0.0,12.0,69,0.00,,,0.00,Wunderground v.1.13,2015-01-31 05:44:00,
2015-01-31 00:54:00,22.7,14.4,30.46,NW,308,0.0,12.0,70,0.00,,,0.00,Wunderground v.1.13,2015-01-31 05:54:00,
2015-01-31 01:04:00,22.7,14.4,30.46,NW,308,0.0,12.0,70,0.00,,,0.00,Wunderground v.1.13,2015-01-31 06:04:00,
2015-01-31 01:14:00,22.5,14.5,30.46,NW,306,0.0,12.0,71,0.00,,,0.00,Wunderground v.1.13,2015-01-31 06:14:00,
2015-01-31 01:24:00,22.2,14.2,30.46,NW,308,0.0,12.0,71,0.00,,,0.00,Wunderground v.1.13,2015-01-31 06:24:00,
2015-01-31 01:34:00,21.9,14.3,30.45,NW,308,0.0,12.0,72,0.00,,,0.00,Wunderground v.1.13,2015-01-31 06:34:00,
2015-01-31 01:44:00,21.8,14.5,30.45,NW,306,0.0,12.0,73,0.00,,,0.00,Wunderground v.1.13,2015-01-31 06:44:00,
2015-01-31 01:54:00,21.4,14.1,30.45,NW,308,0.0,12.0,73,0.00,,,0.00,Wunderground v.1.13,2015-01-31 06:54:00,
2015-01-31 02:04:00,21.4,14.1,30.45,NW,308,0.0,12.0,73,0.00,,,0.00,Wunderground v.1.13,2015-01-31 07:04:00,
2015-01-31 02:14:00,21.3,14.0,30.45,NW,308,0.0,12.0,73,0.00,,,0.00,Wunderground v.1.13,2015-01-31 07:14:00,
2015-01-31 02:24:00,21.0,14.0,30.45,NW,308,0.0,12.0,74,0.00,,,0.00,Wunderground v.1.13,2015-01-31 07:24:00,
2015-01-31 02:34:00,20.8,13.8,30.45,NW,308,0.0,12.0,74,0.00,,,0.00,Wunderground v.1.13,2015-01-31 07:34:00,
2015-01-31 02:44:00,20.6,13.9,30.45,NW,308,0.0,12.0,75,0.00,,,0.00,Wunderground v.1.13,2015-01-31 07:44:00,
2015-01-31 02:54:00,20.5,13.8,30.45,NW,308,0.0,12.0,75,0.00,,,0.00,Wunderground v.1.13,2015-01-31 07:54:00,
2015-01-31 03:04:00,20.3,13.6,30.45,NW,308,0.0,12.0,75,0.00,,,0.00,Wunderground v.1.13,2015-01-31 08:04:00,
2015-01-31 03:14:00,20.3,13.6,30.45,NW,308,0.0,12.0,75,0.00,,,0.00,Wunderground v.1.13,2015-01-31 08:14:00,
2015-01-31 03:24:00,20.3,13.6,30.44,NW,308,0.0,12.0,75,0.00,,,0.00,Wunderground v.1.13,2015-01-31 08:24:00,
2015-01-31 03:34:00,20.2,13.5,30.44,NW,308,0.0,12.0,75,0.00,,,0.00,Wunderground v.1.13,2015-01-31 08:34:00,
2015-01-31 03:44:00,20.2,13.5,30.44,NW,308,0.0,12.0,75,0.00,,,0.00,Wunderground v.1.13,2015-01-31 08:44:00,
2015-01-31 03:54:00,20.0,13.3,30.43,NW,308,0.0,12.0,75,0.00,,,0.00,Wunderground v.1.13,2015-01-31 08:54:00,
2015-01-31 04:14:00,19.4,13.1,30.43,NW,308,0.0,12.0,76,0.00,,,0.00,Wunderground v.1.13,2015-01-31 09:14:00,
2015-01-31 04:24:00,19.2,12.9,30.43,NW,308,0.0,12.0,76,0.00,,,0.00,Wunderground v.1.13,2015-01-31 09:24:00,
2015-01-31 04:34:00,19.1,12.8,30.42,NW,306,0.0,12.0,76,0.00,,,0.00,Wunderground v.1.13,2015-01-31 09:34:00,
2015-01-31 04:44:00,18.9,12.9,30.42,NW,308,0.0,12.0,77,0.00,,,0.00,Wunderground v.1.13,2015-01-31 09:44:00,
2015-01-31 04:54:00,18.9,12.9,30.42,WNW,291,0.0,12.0,77,0.00,,,0.00,Wunderground v.1.13,2015-01-31 09:54:00,
2015-01-31 05:04:00,18.9,13.2,30.41,NW,308,0.0,12.0,78,0.00,,,0.00,Wunderground v.1.13,2015-01-31 10:04:00,
2015-01-31 05:14:00,18.9,12.9,30.41,NW,308,0.0,12.0,77,0.00,,,0.00,Wunderground v.1.13,2015-01-31 10:14:00,
2015-01-31 05:24:00,18.8,12.8,30.41,NW,308,0.0,12.0,77,0.00,,,0.00,Wunderground v.1.13,2015-01-31 10:24:00,
2015-01-31 05:34:00,18.8,12.8,30.41,NW,306,0.0,12.0,77,0.00,,,0.00,Wunderground v.1.13,2015-01-31 10:34:00,
2015-01-31 05:44:00,18.6,12.9,30.41,NW,308,0.0,12.0,78,0.00,,,0.00,Wunderground v.1.13,2015-01-31 10:44:00,
2015-01-31 05:54:00,18.4,12.4,30.41,NW,308,0.0,12.0,77,0.00,,,0.00,Wunderground v.1.13,2015-01-31 10:54:00,
2015-01-31 06:04:00,18.3,12.6,30.40,NW,306,0.0,12.0,78,0.00,,,0.00,Wunderground v.1.13,2015-01-31 11:04:00,
2015-01-31 06:14:00,18.1,12.4,30.40,NW,308,0.0,12.0,78,0.00,,,0.00,Wunderground v.1.13,2015-01-31 11:14:00,
2015-01-31 06:24:00,18.1,12.4,30.41,NW,308,0.0,12.0,78,0.00,,,0.00,Wunderground v.1.13,2015-01-31 11:24:00,
2015-01-31 06:34:00,18.1,12.4,30.41,NW,308,0.0,12.0,78,0.00,,,0.00,Wunderground v.1.13,2015-01-31 11:34:00,
2015-01-31 06:44:00,18.1,12.4,30.41,NW,306,0.0,12.0,78,0.00,,,0.00,Wunderground v.1.13,2015-01-31 11:44:00,
2015-01-31 06:54:00,18.1,12.4,30.41,NW,308,0.0,12.0,78,0.00,,,0.00,Wunderground v.1.13,2015-01-31 11:54:00,
2015-01-31 07:04:00,18.4,13.0,30.41,NW,308,0.0,12.0,79,0.00,,,0.00,Wunderground v.1.13,2015-01-31 12:04:00,
2015-01-31 07:14:00,18.4,12.7,30.41,NW,308,0.0,12.0,78,0.00,,,0.00,Wunderground v.1.13,2015-01-31 12:14:00,
2015-01-31 07:24:00,18.6,12.9,30.41,NW,308,0.0,12.0,78,0.00,,,0.00,Wunderground v.1.13,2015-01-31 12:24:00,
2015-01-31 07:34:00,18.4,12.7,30.42,NW,308,0.0,12.0,78,0.00,,,0.00,Wunderground v.1.13,2015-01-31 12:34:00,
2015-01-31 07:44:00,18.3,12.6,30.42,NW,308,0.0,12.0,78,0.00,,,0.00,Wunderground v.1.13,2015-01-31 12:44:00,
2015-01-31 07:54:00,18.1,12.4,30.42,NW,308,0.0,12.0,78,0.00,,,0.00,Wunderground v.1.13,2015-01-31 12:54:00,
2015-01-31 08:04:00,18.1,12.4,30.42,NW,306,0.0,12.0,78,0.00,,,0.00,Wunderground v.1.13,2015-01-31 13:04:00,
2015-01-31 08:14:00,18.1,12.1,30.42,WNW,291,0.0,12.0,77,0.00,,,0.00,Wunderground v.1.13,2015-01-31 13:14:00,
2015-01-31 08:24:00,18.3,12.6,30.43,NW,308,0.0,12.0,78,0.00,,,0.00,Wunderground v.1.13,2015-01-31 13:24:00,
2015-01-31 08:34:00,18.6,12.6,30.43,NW,308,0.0,12.0,77,0.00,,,0.00,Wunderground v.1.13,2015-01-31 13:34:00,
2015-01-31 08:44:00,18.9,12.9,30.43,NW,306,0.0,12.0,77,0.00,,,0.00,Wunderground v.1.13,2015-01-31 13:44:00,
2015-01-31 08:54:00,19.4,13.4,30.43,NW,308,0.0,12.0,77,0.00,,,0.00,Wunderground v.1.13,2015-01-31 13:54:00,
2015-01-31 09:04:00,20.2,13.8,30.42,NW,306,0.0,12.0,76,0.00,,,0.00,Wunderground v.1.13,2015-01-31 14:04:00,
2015-01-31 09:14:00,20.8,13.8,30.42,NW,308,0.0,12.0,74,0.00,,,0.00,Wunderground v.1.13,2015-01-31 14:14:00,
2015-01-31 09:24:00,21.6,14.0,30.42,ENE,62,0.0,12.0,72,0.00,,,0.00,Wunderground v.1.13,2015-01-31 14:24:00,
2015-01-31 09:34:00,22.4,13.8,30.42,East,100,1.0,12.0,69,0.00,,,0.00,Wunderground v.1.13,2015-01-31 14:34:00,
2015-01-31 09:44:00,23.3,14.3,30.42,ESE,103,1.0,1.0,68,0.00,,,0.00,Wunderground v.1.13,2015-01-31 14:44:00,
2015-01-31 09:54:00,24.4,14.3,30.42,ESE,109,1.0,1.0,65,0.00,,,0.00,Wunderground v.1.13,2015-01-31 14:54:00,
2015-01-31 10:04:00,25.4,14.9,30.42,ESE,112,0.0,12.0,64,0.00,,,0.00,Wunderground v.1.13,2015-01-31 15:04:00,
2015-01-31 10:14:00,26.6,15.7,30.42,ESE,112,0.0,12.0,63,0.00,,,0.00,Wunderground v.1.13,2015-01-31 15:14:00,
2015-01-31 10:24:00,27.8,15.3,30.41,SE,127,1.0,12.0,59,0.00,,,0.00,Wunderground v.1.13,2015-01-31 15:24:00,
2015-01-31 10:34:00,29.0,16.1,30.41,ESE,103,1.0,12.0,58,0.00,,,0.00,Wunderground v.1.13,2015-01-31 15:34:00,
2015-01-31 10:44:00,30.0,16.2,30.41,ESE,109,2.0,12.0,56,0.00,,,0.00,Wunderground v.1.13,2015-01-31 15:44:00,
2015-01-31 10:54:00,30.9,16.6,30.41,ESE,102,1.0,1.0,55,0.00,,,0.00,Wunderground v.1.13,2015-01-31 15:54:00,
2015-01-31 11:04:00,31.8,17.0,30.41,ESE,120,1.0,1.0,54,0.00,,,0.00,Wunderground v.1.13,2015-01-31 16:04:00,
2015-01-31 11:14:00,33.1,17.4,30.41,SE,128,1.0,1.0,52,0.00,,,0.00,Wunderground v.1.13,2015-01-31 16:14:00,
2015-01-31 11:24:00,34.4,16.2,30.40,SSE,162,2.0,12.0,47,0.00,,,0.00,Wunderground v.1.13,2015-01-31 16:24:00,
2015-01-31 11:34:00,35.0,16.3,30.40,SSE,155,3.0,12.0,46,0.00,,,0.00,Wunderground v.1.13,2015-01-31 16:34:00,
2015-01-31 11:44:00,35.5,15.7,30.40,SE,124,5.0,5.0,44,0.00,,,0.00,Wunderground v.1.13,2015-01-31 16:44:00,
2015-01-31 11:54:00,35.8,15.5,30.39,SSE,162,5.0,12.0,43,0.00,,,0.00,Wunderground v.1.13,2015-01-31 16:54:00,
2015-01-31 12:04:00,36.3,15.9,30.38,SSE,154,4.0,12.0,43,0.00,,,0.00,Wunderground v.1.13,2015-01-31 17:04:00,
2015-01-31 12:14:00,36.9,17.0,30.38,SSE,150,5.0,5.0,44,0.00,,,0.00,Wunderground v.1.13,2015-01-31 17:14:00,
2015-01-31 12:24:00,37.6,16.0,30.38,SE,128,3.0,12.0,41,0.00,,,0.00,Wunderground v.1.13,2015-01-31 17:24:00,
2015-01-31 12:34:00,38.0,16.4,30.37,SSE,162,2.0,12.0,41,0.00,,,0.00,Wunderground v.1.13,2015-01-31 17:34:00,
2015-01-31 12:44:00,37.9,16.3,30.37,SE,141,3.0,3.0,41,0.00,,,0.00,Wunderground v.1.13,2015-01-31 17:44:00,
2015-01-31 12:54:00,37.3,16.8,30.36,SE,136,4.0,4.0,43,0.00,,,0.00,Wunderground v.1.13,2015-01-31 17:54:00,
2015-01-31 13:04:00,37.5,17.0,30.35,SE,136,4.0,12.0,43,0.00,,,0.00,Wunderground v.1.13,2015-01-31 18:04:00,
2015-01-31 13:14:00,37.6,17.1,30.35,SE,136,5.0,5.0,43,0.00,,,0.00,Wunderground v.1.13,2015-01-31 18:14:00,
2015-01-31 13:24:00,37.8,17.3,30.34,SE,127,5.0,5.0,43,0.00,,,0.00,Wunderground v.1.13,2015-01-31 18:24:00,
2015-01-31 13:34:00,37.8,17.3,30.33,SE,131,5.0,5.0,43,0.00,,,0.00,Wunderground v.1.13,2015-01-31 18:34:00,
2015-01-31 13:44:00,38.2,16.5,30.33,SE,138,3.0,3.0,41,0.00,,,0.00,Wunderground v.1.13,2015-01-31 18:44:00,
2015-01-31 13:54:00,38.6,16.9,30.32,SE,136,3.0,12.0,41,0.00,,,0.00,Wunderground v.1.13,2015-01-31 18:54:00,
2015-01-31 14:04:00,38.6,16.9,30.32,SSE,155,3.0,3.0,41,0.00,,,0.00,Wunderground v.1.13,2015-01-31 19:04:00,
2015-01-31 14:14:00,38.9,17.2,30.32,SSE,147,3.0,3.0,41,0.00,,,0.00,Wunderground v.1.13,2015-01-31 19:14:00,
2015-01-31 14:24:00,39.1,17.4,30.32,SSE,148,3.0,3.0,41,0.00,,,0.00,Wunderground v.1.13,2015-01-31 19:24:00,
2015-01-31 14:34:00,39.2,16.9,30.32,SE,143,4.0,12.0,40,0.00,,,0.00,Wunderground v.1.13,2015-01-31 19:34:00,
2015-01-31 14:44:00,39.3,17.0,30.32,SSE,151,3.0,3.0,40,0.00,,,0.00,Wunderground v.1.13,2015-01-31 19:44:00,
2015-01-31 14:54:00,39.5,17.7,30.32,SSE,154,2.0,2.0,41,0.00,,,0.00,Wunderground v.1.13,2015-01-31 19:54:00,
2015-01-31 15:04:00,39.9,18.1,30.31,SSE,151,0.0,12.0,41,0.00,,,0.00,Wunderground v.1.13,2015-01-31 20:04:00,